Pagrindinis puslapis
METAR-TAF:

METAR-TAF

Oro uostai :

Puerto Maldonado, Peru

platuma: 12-38S, ilguma: 069-12W, Aukštis: 265 m

Dabartinis oras

Ataskaita buvo paskelbta 8 valandos ir 47 minutes, ne 19:00 UTC
Vėjas 3 kt nuo kintamojo kryptimis
Temperatūra 33°C
Drėgmė 46%
Slėgis 1008 hPa
Matomumas 10 km arba daugiau
Mažai debesys ne aukštis 2800 ft

METAR: SPTU 211900Z VRB03KT 9999 FEW028 33/20 Q1008 RMK BIRD HAZARD RWY 01/19 PP000

Laikas: 22:47 (03:47 UTC)

Prognozė

Ataskaita buvo paskelbta 10 valandos ir 42 minutes, ne 17:05 UTC
Prognozė galioja nuo 21 metu 18 UTC su 22 metu 18 UTC
Vėjas 5 kt iš Pietų/Pietryčių
Matomumas 10 km arba daugiau
nėra debesų žemiau 1500 m ir nėra kamuolinių lietaus debesų

TAF: SPTU 211705Z 2118/2218 16005KT CAVOK TX34/2119Z TN22/2211Z

Orai ataskaitas ir orų prognozės (METAR, TAF).

turimą stotys yra geltonos ir raudonos taškus žemėlapyje.

Perkelti pele per norėdami pamatyti stoties vardą.

Tada spustelėkite, norėdami matyti oro stebėjimo ir prognozės.

Norėdami pakeisti žemėlapį: spustelėkite ant žalios mygtukų su juodo kryžiaus žemyn,; žalią mygtuką su brūkšneliu, jei norite nutolinti; arba žalių rodyklių gretimoms žemėlapius.


METAR-TAF: